createdAt,value
2022-07-30T00:00:57.602Z,50.00
2022-07-30T00:03:30.102Z,50.02
2022-07-30T00:06:02.821Z,50.13
2022-07-30T00:08:35.361Z,50.08
2022-07-30T00:11:08.073Z,49.95
2022-07-30T00:13:40.579Z,49.94
2022-07-30T00:16:13.395Z,49.97
2022-07-30T00:18:46.116Z,50.08
2022-07-30T00:21:20.366Z,50.24
2022-07-30T00:24:09.962Z,50.15
2022-07-30T00:26:42.882Z,50.08
2022-07-30T00:29:15.454Z,50.11
2022-07-30T00:31:47.993Z,50.16
2022-07-30T00:34:20.460Z,50.06
2022-07-30T00:36:53.084Z,50.06
2022-07-30T00:39:25.667Z,50.08
2022-07-30T00:42:00.861Z,50.13
2022-07-30T00:44:33.377Z,50.18
2022-07-30T00:47:06.347Z,50.34
2022-07-30T00:49:43.931Z,50.32
2022-07-30T00:52:17.072Z,50.26
2022-07-30T00:54:49.605Z,50.36
2022-07-30T00:57:22.077Z,50.28
2022-07-30T00:59:55.929Z,50.39
2022-07-30T01:02:28.652Z,50.34
2022-07-30T01:05:01.237Z,50.52
2022-07-30T01:07:34.007Z,50.42
2022-07-30T01:10:08.566Z,50.40
2022-07-30T01:12:42.339Z,50.43
2022-07-30T01:15:15.095Z,50.38
2022-07-30T01:17:52.996Z,50.39
2022-07-30T01:20:28.644Z,50.32
2022-07-30T01:23:09.775Z,50.40
2022-07-30T01:25:55.600Z,50.48
2022-07-30T01:28:34.166Z,50.43
2022-07-30T01:31:08.463Z,50.40
2022-07-30T01:33:44.454Z,50.45
2022-07-30T01:36:19.710Z,50.36
2022-07-30T01:38:54.381Z,50.46
2022-07-30T01:41:30.956Z,50.41
2022-07-30T01:44:04.665Z,50.48
2022-07-30T01:46:38.700Z,50.40
2022-07-30T01:49:13.141Z,50.35
2022-07-30T01:51:49.253Z,50.36
2022-07-30T01:54:23.054Z,50.29
2022-07-30T01:57:10.955Z,50.39
2022-07-30T01:59:48.247Z,50.41
2022-07-30T02:02:21.054Z,50.42
2022-07-30T02:04:53.674Z,50.42
2022-07-30T02:07:34.045Z,50.38
2022-07-30T02:10:12.404Z,50.35
2022-07-30T02:12:53.928Z,50.30
2022-07-30T02:15:31.562Z,50.33
2022-07-30T02:18:09.630Z,50.36
2022-07-30T02:20:49.530Z,50.57
2022-07-30T02:23:25.138Z,50.46
2022-07-30T02:26:01.089Z,50.46
2022-07-30T02:28:36.260Z,50.61
2022-07-30T02:31:17.098Z,50.47
2022-07-30T02:33:54.272Z,50.50
2022-07-30T02:36:28.210Z,50.58
2022-07-30T02:39:03.553Z,50.58
2022-07-30T02:41:37.489Z,50.71
2022-07-30T02:44:11.497Z,50.80
2022-07-30T02:46:44.686Z,50.80
2022-07-30T02:49:19.957Z,50.83
2022-07-30T02:51:53.191Z,50.90
2022-07-30T02:54:31.318Z,50.83
2022-07-30T02:57:05.555Z,50.83
2022-07-30T02:59:41.356Z,50.81
2022-07-30T03:02:29.102Z,50.93
2022-07-30T03:05:12.258Z,50.86
2022-07-30T03:07:46.971Z,50.74
2022-07-30T03:10:20.224Z,50.80
2022-07-30T03:12:54.261Z,50.82
2022-07-30T03:15:27.875Z,50.97
2022-07-30T03:18:02.218Z,51.03
2022-07-30T03:20:37.631Z,50.85
2022-07-30T03:23:13.169Z,50.87
2022-07-30T03:25:48.021Z,50.91
2022-07-30T03:28:23.515Z,50.90
2022-07-30T03:30:56.637Z,50.92
2022-07-30T03:33:38.818Z,50.94
2022-07-30T03:36:13.903Z,51.00
2022-07-30T03:38:48.860Z,51.04
2022-07-30T03:41:22.734Z,51.12
2022-07-30T03:43:56.813Z,51.06
2022-07-30T03:46:30.569Z,51.05
2022-07-30T03:49:04.237Z,51.12
2022-07-30T03:51:38.271Z,50.92
2022-07-30T03:54:13.696Z,51.02
2022-07-30T03:56:46.887Z,51.05
2022-07-30T03:59:19.470Z,51.04
2022-07-30T04:01:55.817Z,51.00
2022-07-30T04:04:36.550Z,51.06
2022-07-30T04:07:09.285Z,51.01
2022-07-30T04:09:42.160Z,51.04
2022-07-30T04:12:15.124Z,51.04
2022-07-30T04:14:51.084Z,51.06
2022-07-30T04:17:27.484Z,51.03
2022-07-30T04:20:07.563Z,51.02
2022-07-30T04:22:41.754Z,50.94
2022-07-30T04:25:24.198Z,51.05
2022-07-30T04:28:03.688Z,51.06
2022-07-30T04:30:37.082Z,51.06
2022-07-30T04:33:10.599Z,51.05
2022-07-30T04:35:51.114Z,51.09
2022-07-30T04:38:25.816Z,51.05
2022-07-30T04:40:58.296Z,51.20
2022-07-30T04:43:30.737Z,51.19
2022-07-30T04:46:03.448Z,51.26
2022-07-30T04:48:35.901Z,51.22
2022-07-30T04:51:14.225Z,51.27
2022-07-30T04:53:48.281Z,51.26
2022-07-30T04:56:22.146Z,51.27
2022-07-30T04:58:56.052Z,51.29
2022-07-30T05:01:41.016Z,51.33
2022-07-30T05:04:14.277Z,51.31
2022-07-30T05:06:47.317Z,51.20
2022-07-30T05:09:21.514Z,51.23
2022-07-30T05:11:57.811Z,51.23
2022-07-30T05:14:30.420Z,51.31
2022-07-30T05:17:03.428Z,51.28
2022-07-30T05:19:36.362Z,51.22
2022-07-30T05:22:08.881Z,51.06
2022-07-30T05:24:46.928Z,51.15
2022-07-30T05:27:22.323Z,51.03
2022-07-30T05:30:00.436Z,51.09
2022-07-30T05:32:33.251Z,50.97
2022-07-30T05:35:06.068Z,50.95
2022-07-30T05:37:38.581Z,50.88
2022-07-30T05:40:13.173Z,50.91
2022-07-30T05:42:46.406Z,50.95
2022-07-30T05:45:19.399Z,50.74
2022-07-30T05:47:51.961Z,50.80
2022-07-30T05:50:24.634Z,50.85
2022-07-30T05:52:58.689Z,50.79
2022-07-30T05:55:31.153Z,50.57
2022-07-30T05:58:08.014Z,50.61
2022-07-30T06:00:41.184Z,50.75
2022-07-30T06:03:14.082Z,50.79
2022-07-30T06:05:46.921Z,50.86
2022-07-30T06:08:19.450Z,50.69
2022-07-30T06:10:51.854Z,50.59
2022-07-30T06:13:25.178Z,50.58
2022-07-30T06:15:57.779Z,50.55
2022-07-30T06:18:30.605Z,50.52
2022-07-30T06:21:03.185Z,50.40
2022-07-30T06:23:38.496Z,50.35
2022-07-30T06:26:11.391Z,50.59
2022-07-30T06:28:43.807Z,50.52
2022-07-30T06:31:16.512Z,50.50
2022-07-30T06:33:52.763Z,50.30
2022-07-30T06:36:25.271Z,50.32
2022-07-30T06:38:57.860Z,50.33
2022-07-30T06:41:30.519Z,50.42
2022-07-30T06:44:03.168Z,50.51
2022-07-30T06:46:35.910Z,50.43
2022-07-30T06:49:08.541Z,50.14
2022-07-30T06:51:41.576Z,50.22
2022-07-30T06:54:16.013Z,50.18
2022-07-30T06:56:48.750Z,50.11
2022-07-30T06:59:22.090Z,50.15
2022-07-30T07:01:55.191Z,50.04
2022-07-30T07:04:28.307Z,50.02
2022-07-30T07:07:01.579Z,49.82
2022-07-30T07:09:45.177Z,49.61
2022-07-30T07:12:17.706Z,49.72
2022-07-30T07:14:50.230Z,49.86
2022-07-30T07:17:23.138Z,49.81
2022-07-30T07:20:01.336Z,49.78
2022-07-30T07:22:34.949Z,49.60
2022-07-30T07:25:08.807Z,49.52
2022-07-30T07:27:41.837Z,49.56
2022-07-30T07:30:15.431Z,49.28
2022-07-30T07:32:48.263Z,49.36
2022-07-30T07:35:20.998Z,49.28
2022-07-30T07:37:53.590Z,49.10
2022-07-30T07:40:26.675Z,48.82
2022-07-30T07:42:59.271Z,48.68
2022-07-30T07:45:32.084Z,48.41
2022-07-30T07:48:04.881Z,48.25
2022-07-30T07:50:37.850Z,47.93
2022-07-30T07:53:10.423Z,47.94
2022-07-30T07:55:43.002Z,47.77
2022-07-30T07:58:17.581Z,47.66
2022-07-30T08:00:58.168Z,47.31
2022-07-30T08:03:30.557Z,47.16
2022-07-30T08:06:06.326Z,46.96
2022-07-30T08:08:43.290Z,46.75
2022-07-30T08:11:16.905Z,46.58
2022-07-30T08:13:56.196Z,46.41
2022-07-30T08:16:29.411Z,46.20
2022-07-30T08:19:07.016Z,46.26
2022-07-30T08:21:39.809Z,46.23
2022-07-30T08:24:13.207Z,46.09
2022-07-30T08:26:46.097Z,45.49
2022-07-30T08:29:18.793Z,45.24
2022-07-30T08:31:51.758Z,45.37
2022-07-30T08:34:25.780Z,45.46
2022-07-30T08:36:58.642Z,45.06
2022-07-30T08:39:40.034Z,44.76
2022-07-30T08:42:14.990Z,44.67
2022-07-30T08:44:48.071Z,44.33
2022-07-30T08:47:23.057Z,44.10
2022-07-30T08:49:56.725Z,44.07
2022-07-30T08:52:36.988Z,43.88
2022-07-30T08:55:11.344Z,43.77
2022-07-30T08:57:44.780Z,43.44
2022-07-30T09:00:19.100Z,43.10
2022-07-30T09:03:44.329Z,43.17
2022-07-30T09:06:18.396Z,42.90
2022-07-30T09:08:50.918Z,43.21
2022-07-30T09:11:24.053Z,42.88
2022-07-30T09:14:08.792Z,42.68
2022-07-30T09:16:44.311Z,42.69
2022-07-30T09:19:21.879Z,42.47
2022-07-30T09:22:02.985Z,42.18
2022-07-30T09:24:44.642Z,41.81
2022-07-30T09:27:17.353Z,41.53
2022-07-30T09:30:00.398Z,41.64
2022-07-30T09:32:50.820Z,40.97
2022-07-30T09:35:23.967Z,40.86
2022-07-30T09:38:06.507Z,40.87
2022-07-30T09:40:42.866Z,40.38
2022-07-30T09:43:15.826Z,40.54
2022-07-30T09:45:57.979Z,40.34
2022-07-30T09:48:31.685Z,40.07
2022-07-30T09:51:04.582Z,39.70
2022-07-30T09:53:38.050Z,39.42
2022-07-30T09:56:27.704Z,39.29
2022-07-30T09:59:02.938Z,39.11
2022-07-30T10:01:59.197Z,39.18
2022-07-30T10:04:34.532Z,38.90
2022-07-30T10:07:25.290Z,38.62
2022-07-30T10:10:02.618Z,38.12
2022-07-30T10:12:41.058Z,38.06
2022-07-30T10:15:14.979Z,37.62
2022-07-30T10:17:48.679Z,36.96
2022-07-30T10:20:21.736Z,36.72
2022-07-30T10:22:54.305Z,36.47
2022-07-30T10:25:28.444Z,36.52
2022-07-30T10:28:03.313Z,36.36
2022-07-30T10:30:36.565Z,36.42
2022-07-30T10:33:36.438Z,36.39
2022-07-30T10:36:05.208Z,35.64
2022-07-30T10:38:41.612Z,35.74
2022-07-30T10:41:42.829Z,35.55
2022-07-30T10:44:57.862Z,35.45
2022-07-30T10:47:33.556Z,35.39
2022-07-30T10:50:12.439Z,34.79
2022-07-30T10:52:53.434Z,34.53
2022-07-30T10:55:36.550Z,33.96
2022-07-30T10:58:15.577Z,34.18
2022-07-30T11:01:01.907Z,34.22
2022-07-30T11:03:41.070Z,34.03
2022-07-30T11:06:30.853Z,33.96
2022-07-30T11:09:03.664Z,33.72
2022-07-30T11:12:16.323Z,33.75
2022-07-30T11:15:07.220Z,33.82
2022-07-30T11:18:12.881Z,33.61
2022-07-30T11:21:15.331Z,32.97
2022-07-30T11:23:49.485Z,33.00
2022-07-30T11:26:51.618Z,32.93
2022-07-30T11:29:50.519Z,32.69
2022-07-30T11:32:36.862Z,32.87
2022-07-30T11:35:22.990Z,32.73
2022-07-30T11:38:08.924Z,32.50
2022-07-30T11:41:02.347Z,32.28
2022-07-30T11:43:37.036Z,32.17
2022-07-30T11:46:10.939Z,32.14
2022-07-30T11:49:00.263Z,32.15
2022-07-30T11:51:43.742Z,31.94
2022-07-30T11:54:16.861Z,31.75
2022-07-30T11:57:04.286Z,31.53
2022-07-30T11:59:55.959Z,31.38
2022-07-30T12:02:31.369Z,31.33
2022-07-30T12:05:04.844Z,30.88
2022-07-30T12:07:37.186Z,30.34
2022-07-30T12:10:27.102Z,30.31
2022-07-30T12:13:15.292Z,30.27
2022-07-30T12:15:49.175Z,30.24
2022-07-30T12:18:29.582Z,30.13
2022-07-30T12:21:03.696Z,30.01
2022-07-30T12:23:36.678Z,29.74
2022-07-30T12:26:09.223Z,29.57
2022-07-30T12:28:41.679Z,29.47
2022-07-30T12:31:17.833Z,29.13
2022-07-30T12:33:50.339Z,28.98
2022-07-30T12:36:32.083Z,28.67
2022-07-30T12:39:06.812Z,28.74
2022-07-30T12:41:46.998Z,28.35
2022-07-30T12:44:42.442Z,28.23
2022-07-30T12:47:26.801Z,27.87
2022-07-30T12:50:01.638Z,27.79
2022-07-30T12:52:36.076Z,27.44
2022-07-30T12:55:12.595Z,27.23
2022-07-30T12:58:01.705Z,26.77
2022-07-30T13:00:52.950Z,26.20
2022-07-30T13:03:27.641Z,26.16
2022-07-30T13:06:00.629Z,26.02
2022-07-30T13:08:52.039Z,25.58
2022-07-30T13:11:26.049Z,25.35
2022-07-30T13:13:58.460Z,25.08
2022-07-30T13:16:35.011Z,24.81
2022-07-30T13:19:08.250Z,24.53
2022-07-30T13:21:42.974Z,24.39
2022-07-30T13:24:22.896Z,24.24
2022-07-30T13:26:55.394Z,23.93
2022-07-30T13:29:29.206Z,23.78
2022-07-30T13:32:01.496Z,23.43
2022-07-30T13:34:33.965Z,22.95
2022-07-30T13:37:06.583Z,22.45
2022-07-30T13:39:39.039Z,22.04
2022-07-30T13:42:11.394Z,22.43
2022-07-30T13:44:44.054Z,22.48
2022-07-30T13:47:19.293Z,22.51
2022-07-30T13:49:51.870Z,22.09
2022-07-30T13:52:24.165Z,21.80
2022-07-30T13:54:56.930Z,21.50
2022-07-30T13:57:29.309Z,21.01
2022-07-30T14:00:02.156Z,21.05
2022-07-30T14:02:34.647Z,20.99
2022-07-30T14:05:08.131Z,20.81
2022-07-30T14:07:41.095Z,20.38
2022-07-30T14:10:13.710Z,20.46
2022-07-30T14:12:46.192Z,20.57
2022-07-30T14:15:19.055Z,20.93
2022-07-30T14:17:56.069Z,20.23
2022-07-30T14:20:29.499Z,20.34
2022-07-30T14:23:01.876Z,20.14
2022-07-30T14:25:34.772Z,20.35
2022-07-30T14:28:07.551Z,20.28
2022-07-30T14:30:40.097Z,19.77
2022-07-30T14:33:12.850Z,19.69
2022-07-30T14:35:45.489Z,19.57
2022-07-30T14:38:17.726Z,19.44
2022-07-30T14:40:50.317Z,19.26
2022-07-30T14:43:25.094Z,19.41
2022-07-30T14:45:57.588Z,19.16
2022-07-30T14:48:30.119Z,18.50
2022-07-30T14:51:16.011Z,18.73
2022-07-30T14:53:52.197Z,18.78
2022-07-30T14:56:25.310Z,18.82
2022-07-30T14:58:58.868Z,18.89
2022-07-30T15:01:31.781Z,19.15
2022-07-30T15:06:41.246Z,19.07
2022-07-30T15:09:13.935Z,18.78
2022-07-30T15:14:40.016Z,18.51
2022-07-30T15:17:12.734Z,18.48
2022-07-30T15:19:50.375Z,18.00
2022-07-30T15:22:23.664Z,18.05
2022-07-30T15:24:56.163Z,17.68
2022-07-30T15:27:33.963Z,17.30
2022-07-30T15:30:09.040Z,17.56
2022-07-30T15:32:41.461Z,17.84
2022-07-30T15:35:14.328Z,17.52
2022-07-30T15:37:47.506Z,17.12
2022-07-30T15:40:20.248Z,17.32
2022-07-30T15:42:53.147Z,17.17
2022-07-30T15:45:25.771Z,17.23
2022-07-30T15:47:58.371Z,17.19
2022-07-30T15:50:30.712Z,17.16
2022-07-30T15:53:09.339Z,16.97
2022-07-30T15:55:46.973Z,17.09
2022-07-30T15:58:19.986Z,16.76
2022-07-30T16:00:52.479Z,16.74
2022-07-30T16:03:25.339Z,16.83
2022-07-30T16:05:58.005Z,16.67
2022-07-30T16:08:30.664Z,17.07
2022-07-30T16:11:04.578Z,16.95
2022-07-30T16:13:36.970Z,16.90
2022-07-30T16:16:09.601Z,17.12
2022-07-30T16:18:42.225Z,16.86
2022-07-30T16:21:14.943Z,17.22
2022-07-30T16:23:47.287Z,17.45
2022-07-30T16:26:20.099Z,17.47
2022-07-30T16:28:52.950Z,17.43
2022-07-30T16:31:25.892Z,17.71
2022-07-30T16:33:59.011Z,17.77
2022-07-30T16:36:31.520Z,18.27
2022-07-30T16:39:04.558Z,19.31
2022-07-30T16:41:37.040Z,19.80
2022-07-30T16:44:10.053Z,20.29
2022-07-30T16:46:42.766Z,20.87
2022-07-30T16:49:15.480Z,21.50
2022-07-30T16:51:47.878Z,21.93
2022-07-30T16:54:20.431Z,22.35
2022-07-30T16:56:53.132Z,22.64
2022-07-30T16:59:25.658Z,23.01
2022-07-30T17:01:58.291Z,23.28
2022-07-30T17:04:31.018Z,23.72
2022-07-30T17:07:03.449Z,24.08
2022-07-30T17:09:37.110Z,24.42
2022-07-30T17:12:12.215Z,24.88
2022-07-30T17:14:45.365Z,25.04
2022-07-30T17:17:18.065Z,25.30
2022-07-30T17:19:50.804Z,25.61
2022-07-30T17:22:23.653Z,25.83
2022-07-30T17:24:56.160Z,25.84
2022-07-30T17:27:31.794Z,26.35
2022-07-30T17:30:05.124Z,26.55
2022-07-30T17:32:37.621Z,26.77
2022-07-30T17:35:13.982Z,26.86
2022-07-30T17:37:46.620Z,26.96
2022-07-30T17:40:29.124Z,27.16
2022-07-30T17:43:08.045Z,27.45
2022-07-30T17:45:42.779Z,27.83
2022-07-30T17:48:15.171Z,27.88
2022-07-30T17:50:47.726Z,28.19
2022-07-30T17:53:20.148Z,28.09
2022-07-30T17:55:57.379Z,28.14
2022-07-30T17:58:32.131Z,28.49
2022-07-30T18:01:05.146Z,28.60
2022-07-30T18:03:37.784Z,28.54
2022-07-30T18:06:17.933Z,28.82
2022-07-30T18:08:50.807Z,28.82
2022-07-30T18:11:23.392Z,28.76
2022-07-30T18:13:56.950Z,28.88
2022-07-30T18:16:29.594Z,29.01
2022-07-30T18:19:02.010Z,29.22
2022-07-30T18:21:34.736Z,29.16
2022-07-30T18:24:12.987Z,29.43
2022-07-30T18:26:47.088Z,29.31
2022-07-30T18:29:20.981Z,29.59
2022-07-30T18:31:53.798Z,29.68
2022-07-30T18:35:17.698Z,29.72
2022-07-30T18:37:50.702Z,29.94
2022-07-30T18:40:24.611Z,30.27
2022-07-30T18:42:57.281Z,30.42
2022-07-30T18:45:35.239Z,30.79
2022-07-30T18:48:10.167Z,30.91
2022-07-30T18:50:42.863Z,31.31
2022-07-30T18:53:16.881Z,31.42
2022-07-30T18:55:49.216Z,31.97
2022-07-30T18:58:22.182Z,32.16
2022-07-30T19:00:57.007Z,32.32
2022-07-30T19:03:30.132Z,32.74
2022-07-30T19:06:02.449Z,32.85
2022-07-30T19:08:35.159Z,33.15
2022-07-30T19:11:07.474Z,33.28
2022-07-30T19:13:41.867Z,33.66
2022-07-30T19:16:14.427Z,33.75
2022-07-30T19:18:47.110Z,34.28
2022-07-30T19:21:19.587Z,34.11
2022-07-30T19:23:52.607Z,34.04
2022-07-30T19:26:27.127Z,34.39
2022-07-30T19:28:59.705Z,34.25
2022-07-30T19:31:32.443Z,34.38
2022-07-30T19:34:07.284Z,34.72
2022-07-30T19:36:40.089Z,34.80
2022-07-30T19:39:16.135Z,35.09
2022-07-30T19:41:54.537Z,35.26
2022-07-30T19:44:27.149Z,35.18
2022-07-30T19:47:00.110Z,35.36
2022-07-30T19:49:33.195Z,35.64
2022-07-30T19:52:23.664Z,35.63
2022-07-30T19:54:59.475Z,35.72
2022-07-30T19:57:53.112Z,35.76
2022-07-30T20:00:25.435Z,35.88
2022-07-30T20:02:58.671Z,35.98
2022-07-30T20:05:57.139Z,35.98
2022-07-30T20:08:26.342Z,36.00
2022-07-30T20:10:59.523Z,36.07
2022-07-30T20:13:44.105Z,36.44
2022-07-30T20:16:18.798Z,36.26
2022-07-30T20:18:54.824Z,36.55
2022-07-30T20:21:56.889Z,36.64
2022-07-30T20:24:21.113Z,36.74
2022-07-30T20:48:35.427Z,36.77
2022-07-30T20:51:09.481Z,36.79
2022-07-30T20:53:41.937Z,36.66
2022-07-30T20:56:19.281Z,36.58
2022-07-30T20:58:49.725Z,36.56
2022-07-30T21:01:51.138Z,36.57
2022-07-30T21:04:31.266Z,36.70
2022-07-30T21:07:08.142Z,36.50
2022-07-30T21:09:49.936Z,36.66
2022-07-30T21:12:32.868Z,36.81
2022-07-30T21:15:02.558Z,36.75
2022-07-30T21:17:38.512Z,36.75
2022-07-30T21:23:59.652Z,36.89
2022-07-30T21:26:33.209Z,37.03
2022-07-30T21:29:08.832Z,36.91
2022-07-30T21:32:00.521Z,37.30
2022-07-30T21:34:41.844Z,37.18
2022-07-30T21:37:18.710Z,37.55
2022-07-30T21:40:05.816Z,37.72
2022-07-30T21:42:57.102Z,37.87
2022-07-30T21:45:41.505Z,37.94
2022-07-30T21:48:28.886Z,38.34
2022-07-30T21:50:59.167Z,38.47
2022-07-30T21:53:45.926Z,38.88
2022-07-30T21:56:33.517Z,39.15
2022-07-30T21:59:10.356Z,39.45
2022-07-30T22:01:50.770Z,40.65
2022-07-30T22:04:27.362Z,40.77
2022-07-30T22:07:14.172Z,40.91
2022-07-30T22:09:48.817Z,41.78
2022-07-30T22:12:20.868Z,42.54
2022-07-30T22:14:56.167Z,42.69
2022-07-30T22:17:58.861Z,43.36
2022-07-30T22:20:37.401Z,43.70
2022-07-30T22:23:34.792Z,45.32
2022-07-30T22:26:09.626Z,45.19
2022-07-30T22:28:43.539Z,45.88
2022-07-30T22:31:21.430Z,46.83
2022-07-30T22:33:57.378Z,46.73
2022-07-30T22:36:31.690Z,48.05
2022-07-30T22:39:09.052Z,48.91
2022-07-30T22:41:46.477Z,48.37
2022-07-30T22:44:24.889Z,49.33
2022-07-30T22:46:58.309Z,49.14
2022-07-30T22:49:53.318Z,49.48
2022-07-30T22:52:23.026Z,50.22
2022-07-30T22:55:08.983Z,49.92
2022-07-30T22:57:46.524Z,51.48
2022-07-30T23:00:31.684Z,50.51
2022-07-30T23:03:23.659Z,50.57
2022-07-30T23:05:58.570Z,50.57
2022-07-30T23:08:43.413Z,50.38
2022-07-30T23:11:18.067Z,50.68
2022-07-30T23:14:00.496Z,50.61
2022-07-30T23:16:50.474Z,50.29
2022-07-30T23:19:25.808Z,50.13
2022-07-30T23:22:11.532Z,50.17
2022-07-30T23:25:03.284Z,51.38
2022-07-30T23:27:41.601Z,50.73
2022-07-30T23:30:20.511Z,50.84
2022-07-30T23:33:02.891Z,52.20
2022-07-30T23:35:55.122Z,52.25
2022-07-30T23:38:33.098Z,52.54
2022-07-30T23:41:03.568Z,53.14
2022-07-30T23:43:32.689Z,54.94
2022-07-30T23:46:02.409Z,54.27
2022-07-30T23:48:31.791Z,54.02
2022-07-30T23:51:00.925Z,53.77
2022-07-30T23:53:30.060Z,53.60
2022-07-30T23:55:58.978Z,53.92
2022-07-30T23:58:27.916Z,53.98
